sensor_id;sensor_type;location;lat;lon;timestamp;P1;P2;P0
45312;PMS7003;68267;51.540;5.854;2023-04-25T00:00:13;7.45;8.08;5.46
45312;PMS7003;68267;51.540;5.854;2023-04-25T00:13:33;4.09;6.99;5.35
45312;PMS7003;68267;51.540;5.854;2023-04-25T00:26:53;14.65;7.53;5.46
45312;PMS7003;68267;51.540;5.854;2023-04-25T00:40:12;9.97;8.62;5.35
45312;PMS7003;68267;51.540;5.854;2023-04-25T00:53:32;5.65;7.09;5.13
45312;PMS7003;68267;51.540;5.854;2023-04-25T01:06:52;4.09;6.99;5.35
45312;PMS7003;68267;51.540;5.854;2023-04-25T01:20:11;4.81;7.64;5.35
45312;PMS7003;68267;51.540;5.854;2023-04-25T01:33:31;5.29;8.08;5.24
45312;PMS7003;68267;51.540;5.854;2023-04-25T01:46:51;5.29;8.08;5.35
45312;PMS7003;68267;51.540;5.854;2023-04-25T02:00:10;6.85;7.53;5.68
45312;PMS7003;68267;51.540;5.854;2023-04-25T02:13:30;13.93;7.42;5.35
45312;PMS7003;68267;51.540;5.854;2023-04-25T02:26:50;12.97;8.08;5.79
45312;PMS7003;68267;51.540;5.854;2023-04-25T02:40:10;12.97;8.73;5.9
45312;PMS7003;68267;51.540;5.854;2023-04-25T02:53:29;5.89;8.62;5.79
45312;PMS7003;68267;51.540;5.854;2023-04-25T03:06:49;12.49;8.73;6.0
45312;PMS7003;68267;51.540;5.854;2023-04-25T03:20:09;6.13;8.84;6.55
45312;PMS7003;68267;51.540;5.854;2023-04-25T03:33:29;6.97;9.6;6.55
45312;PMS7003;68267;51.540;5.854;2023-04-25T03:46:48;12.85;10.04;6.66
45312;PMS7003;68267;51.540;5.854;2023-04-25T04:00:08;10.69;8.84;6.66
45312;PMS7003;68267;51.540;5.854;2023-04-25T04:13:28;6.37;9.06;6.77
45312;PMS7003;68267;51.540;5.854;2023-04-25T04:26:47;21.85;9.27;6.22
45312;PMS7003;68267;51.540;5.854;2023-04-25T04:40:07;12.97;9.38;6.99
45312;PMS7003;68267;51.540;5.854;2023-04-25T04:53:27;14.77;9.17;6.77
45312;PMS7003;68267;51.540;5.854;2023-04-25T05:06:46;43.94;10.58;7.09
45312;PMS7003;68267;51.540;5.854;2023-04-25T05:20:06;7.93;10.47;6.99
45312;PMS7003;68267;51.540;5.854;2023-04-25T05:33:26;7.21;9.82;6.88
45312;PMS7003;68267;51.540;5.854;2023-04-25T05:46:46;11.17;10.36;6.88
45312;PMS7003;68267;51.540;5.854;2023-04-25T06:00:05;13.81;9.49;6.77
45312;PMS7003;68267;51.540;5.854;2023-04-25T06:13:25;10.93;9.49;6.0
45312;PMS7003;68267;51.540;5.854;2023-04-25T06:26:45;4.45;7.31;5.02
45312;PMS7003;68267;51.540;5.854;2023-04-25T06:40:05;8.17;6.22;4.59
45312;PMS7003;68267;51.540;5.854;2023-04-25T06:53:25;9.25;6.99;4.48
45312;PMS7003;68267;51.540;5.854;2023-04-25T07:06:44;6.13;5.9;4.04
45312;PMS7003;68267;51.540;5.854;2023-04-25T07:20:04;4.45;6.0;4.26
45312;PMS7003;68267;51.540;5.854;2023-04-25T07:33:24;1.44;4.59;3.39
45312;PMS7003;68267;51.540;5.854;2023-04-25T07:46:43;9.37;5.68;3.61
45312;PMS7003;68267;51.540;5.854;2023-04-25T08:00:03;2.28;5.35;3.71
45312;PMS7003;68267;51.540;5.854;2023-04-25T08:13:23;4.45;3.17;2.3
45312;PMS7003;68267;51.540;5.854;2023-04-25T08:26:43;0.96;4.15;2.52
45312;PMS7003;68267;51.540;5.854;2023-04-25T08:40:02;4.57;3.61;2.19
45312;PMS7003;68267;51.540;5.854;2023-04-25T08:53:22;0.01;3.06;1.97
45312;PMS7003;68267;51.540;5.854;2023-04-25T09:06:42;0.01;2.73;1.75
45312;PMS7003;68267;51.540;5.854;2023-04-25T09:20:01;0.01;3.17;1.75
45312;PMS7003;68267;51.540;5.854;2023-04-25T09:33:21;0.01;2.52;1.64
45312;PMS7003;68267;51.540;5.854;2023-04-25T09:46:41;6.61;3.17;1.75
45312;PMS7003;68267;51.540;5.854;2023-04-25T10:00:01;9.01;3.17;1.86
45312;PMS7003;68267;51.540;5.854;2023-04-25T10:13:21;0.01;2.08;1.75
45312;PMS7003;68267;51.540;5.854;2023-04-25T10:26:41;0.01;2.41;1.97
45312;PMS7003;68267;51.540;5.854;2023-04-25T10:40:00;1.56;2.84;2.52
45312;PMS7003;68267;51.540;5.854;2023-04-25T10:53:20;0.01;2.41;1.86
45312;PMS7003;68267;51.540;5.854;2023-04-25T11:06:40;0.01;2.84;1.75
45312;PMS7003;68267;51.540;5.854;2023-04-25T11:20:00;0.01;2.95;2.08
45312;PMS7003;68267;51.540;5.854;2023-04-25T11:33:19;9.13;2.08;1.64
45312;PMS7003;68267;51.540;5.854;2023-04-25T11:46:39;0.01;1.97;1.64
45312;PMS7003;68267;51.540;5.854;2023-04-25T11:59:59;25.81;2.41;1.86
45312;PMS7003;68267;51.540;5.854;2023-04-25T12:13:19;0.01;2.41;1.86
45312;PMS7003;68267;51.540;5.854;2023-04-25T12:26:38;0.01;2.41;1.75
45312;PMS7003;68267;51.540;5.854;2023-04-25T12:39:58;0.01;1.64;1.32
45312;PMS7003;68267;51.540;5.854;2023-04-25T12:53:18;0.01;1.64;1.32
45312;PMS7003;68267;51.540;5.854;2023-04-25T13:06:38;11.29;1.54;
45312;PMS7003;68267;51.540;5.854;2023-04-25T13:19:57;0.01;1.43;
45312;PMS7003;68267;51.540;5.854;2023-04-25T13:33:17;0.01;2.62;1.64
45312;PMS7003;68267;51.540;5.854;2023-04-25T13:46:36;7.45;2.19;1.64
45312;PMS7003;68267;51.540;5.854;2023-04-25T13:59:56;0.01;2.19;1.64
45312;PMS7003;68267;51.540;5.854;2023-04-25T14:13:16;0.01;2.3;1.64
45312;PMS7003;68267;51.540;5.854;2023-04-25T14:26:36;16.69;2.41;1.64
45312;PMS7003;68267;51.540;5.854;2023-04-25T14:39:55;3.6;2.19;1.64
45312;PMS7003;68267;51.540;5.854;2023-04-25T14:53:15;0.01;1.75;1.54
45312;PMS7003;68267;51.540;5.854;2023-04-25T15:06:34;0.01;2.08;1.64
45312;PMS7003;68267;51.540;5.854;2023-04-25T15:19:54;0.01;1.86;1.64
45312;PMS7003;68267;51.540;5.854;2023-04-25T15:33:14;0.01;2.19;1.64
45312;PMS7003;68267;51.540;5.854;2023-04-25T15:46:33;0.01;2.62;1.64
45312;PMS7003;68267;51.540;5.854;2023-04-25T15:59:53;8.05;2.62;1.75
45312;PMS7003;68267;51.540;5.854;2023-04-25T16:13:13;0.01;2.3;1.64
45312;PMS7003;68267;51.540;5.854;2023-04-25T16:26:32;0.01;2.41;1.75
45312;PMS7003;68267;51.540;5.854;2023-04-25T16:39:52;0.01;2.19;1.64
45312;PMS7003;68267;51.540;5.854;2023-04-25T16:53:12;0.01;2.62;1.75
45312;PMS7003;68267;51.540;5.854;2023-04-25T17:06:31;1.8;2.19;1.64
45312;PMS7003;68267;51.540;5.854;2023-04-25T17:19:51;0.01;2.19;1.64
45312;PMS7003;68267;51.540;5.854;2023-04-25T17:33:11;0.01;2.52;1.64
45312;PMS7003;68267;51.540;5.854;2023-04-25T17:46:30;7.09;2.95;1.75
45312;PMS7003;68267;51.540;5.854;2023-04-25T17:59:50;0.01;2.3;1.75
45312;PMS7003;68267;51.540;5.854;2023-04-25T18:13:10;0.01;3.17;2.19
45312;PMS7003;68267;51.540;5.854;2023-04-25T18:26:30;0.01;3.17;2.19
45312;PMS7003;68267;51.540;5.854;2023-04-25T18:39:49;0.24;3.5;2.19
45312;PMS7003;68267;51.540;5.854;2023-04-25T18:53:09;11.29;3.39;2.3
45312;PMS7003;68267;51.540;5.854;2023-04-25T19:06:29;0.01;2.95;2.19
45312;PMS7003;68267;51.540;5.854;2023-04-25T19:19:49;0.36;3.61;2.3
45312;PMS7003;68267;51.540;5.854;2023-04-25T19:33:08;0.48;3.71;2.73
45312;PMS7003;68267;51.540;5.854;2023-04-25T19:46:28;7.69;3.28;2.52
45312;PMS7003;68267;51.540;5.854;2023-04-25T19:59:48;0.36;3.61;2.84
45312;PMS7003;68267;51.540;5.854;2023-04-25T20:13:08;0.01;3.17;2.62
45312;PMS7003;68267;51.540;5.854;2023-04-25T20:26:28;2.52;5.57;4.8
45312;PMS7003;68267;51.540;5.854;2023-04-25T20:39:47;3.12;6.11;5.13
45312;PMS7003;68267;51.540;5.854;2023-04-25T20:53:07;1.8;4.91;3.93
45312;PMS7003;68267;51.540;5.854;2023-04-25T21:06:27;9.61;6.55;4.04
45312;PMS7003;68267;51.540;5.854;2023-04-25T21:19:46;7.57;5.57;4.37
45312;PMS7003;68267;51.540;5.854;2023-04-25T21:33:06;6.13;5.68;4.59
45312;PMS7003;68267;51.540;5.854;2023-04-25T21:46:26;11.41;7.53;5.35
45312;PMS7003;68267;51.540;5.854;2023-04-25T21:59:45;3.73;6.66;5.13
45312;PMS7003;68267;51.540;5.854;2023-04-25T22:13:05;3.0;6.0;5.02
45312;PMS7003;68267;51.540;5.854;2023-04-25T22:39:45;4.57;7.42;5.57
45312;PMS7003;68267;51.540;5.854;2023-04-25T22:53:04;7.45;7.09;6.11
45312;PMS7003;68267;51.540;5.854;2023-04-25T23:06:24;4.33;7.2;6.33
45312;PMS7003;68267;51.540;5.854;2023-04-25T23:19:44;7.57;7.31;6.33
45312;PMS7003;68267;51.540;5.854;2023-04-25T23:33:03;5.05;7.86;6.77
45312;PMS7003;68267;51.540;5.854;2023-04-25T23:46:23;7.93;9.06;7.86
45312;PMS7003;68267;51.540;5.854;2023-04-25T23:59:43;9.97;9.71;7.97
